createdAt,value
2019-01-04T00:00:47.372Z,10.30
2019-01-04T00:01:47.384Z,8.50
2019-01-04T00:02:47.349Z,10.80
2019-01-04T00:03:47.339Z,10.00
2019-01-04T00:04:47.329Z,8.80
2019-01-04T00:05:47.330Z,8.70
2019-01-04T00:06:47.304Z,13.80
2019-01-04T00:07:47.314Z,9.90
2019-01-04T00:08:47.285Z,10.40
2019-01-04T00:09:47.276Z,12.70
2019-01-04T00:10:47.278Z,10.30
2019-01-04T00:11:47.252Z,9.60
2019-01-04T00:12:47.239Z,10.00
2019-01-04T00:13:47.244Z,11.70
2019-01-04T00:14:47.213Z,8.50
2019-01-04T00:15:47.208Z,12.20
2019-01-04T00:16:47.212Z,8.90
2019-01-04T00:17:47.183Z,8.50
2019-01-04T00:18:48.142Z,8.20
2019-01-04T00:19:47.178Z,10.40
2019-01-04T00:20:47.152Z,11.30
2019-01-04T00:21:47.155Z,8.90
2019-01-04T00:22:47.127Z,12.20
2019-01-04T00:23:47.113Z,11.50
2019-01-04T00:24:47.104Z,9.90
2019-01-04T00:25:47.137Z,13.30
2019-01-04T00:26:47.084Z,9.60
2019-01-04T00:27:47.092Z,10.50
2019-01-04T00:28:47.059Z,12.00
2019-01-04T00:29:47.051Z,10.60
2019-01-04T00:30:47.041Z,11.80
2019-01-04T00:31:47.049Z,10.60
2019-01-04T00:32:47.016Z,10.60
2019-01-04T00:33:47.018Z,9.90
2019-01-04T00:34:46.999Z,10.50
2019-01-04T00:35:46.982Z,11.00
2019-01-04T00:36:46.991Z,10.50
2019-01-04T00:37:46.982Z,13.90
2019-01-04T00:38:46.952Z,12.00
2019-01-04T00:39:46.937Z,10.00
2019-01-04T00:40:46.931Z,12.50
2019-01-04T00:41:46.916Z,9.50
2019-01-04T00:42:46.929Z,9.10
2019-01-04T00:43:46.932Z,10.20
2019-01-04T00:44:46.887Z,12.10
2019-01-04T00:45:46.872Z,10.00
2019-01-04T00:46:46.860Z,10.80
2019-01-04T00:47:46.851Z,13.90
2019-01-04T00:48:46.855Z,11.90
2019-01-04T00:49:46.851Z,11.90
2019-01-04T00:50:46.815Z,16.20
2019-01-04T00:51:46.814Z,10.60
2019-01-04T00:52:46.796Z,10.70
2019-01-04T00:53:46.781Z,12.30
2019-01-04T00:54:46.787Z,12.80
2019-01-04T00:55:46.790Z,10.90
2019-01-04T00:56:46.764Z,13.90
2019-01-04T00:57:46.751Z,13.50
2019-01-04T00:58:46.726Z,12.50
2019-01-04T00:59:46.718Z,10.60
2019-01-04T01:00:46.705Z,14.90
2019-01-04T01:01:46.751Z,14.10
2019-01-04T01:02:46.686Z,13.30
2019-01-04T01:03:46.674Z,12.80
2019-01-04T01:04:46.664Z,13.50
2019-01-04T01:05:46.676Z,14.10
2019-01-04T01:06:46.641Z,14.60
2019-01-04T01:07:46.659Z,13.80
2019-01-04T01:08:46.616Z,12.80
2019-01-04T01:09:46.605Z,15.00
2019-01-04T01:10:46.594Z,11.90
2019-01-04T01:11:46.595Z,15.50
2019-01-04T01:12:46.598Z,10.20
2019-01-04T01:13:46.585Z,17.20
2019-01-04T01:14:46.553Z,17.60
2019-01-04T01:15:46.540Z,12.70
2019-01-04T01:16:46.554Z,14.30
2019-01-04T01:17:46.523Z,11.50
2019-01-04T01:18:46.504Z,14.00
2019-01-04T01:19:46.518Z,11.50
2019-01-04T01:20:46.485Z,14.70
2019-01-04T01:21:46.474Z,17.70
2019-01-04T01:22:46.473Z,15.50
2019-01-04T01:23:46.469Z,15.20
2019-01-04T01:24:46.438Z,12.80
2019-01-04T01:25:46.446Z,11.90
2019-01-04T01:26:46.416Z,15.70
2019-01-04T01:27:46.407Z,15.90
2019-01-04T01:28:46.411Z,17.30
2019-01-04T01:29:46.387Z,14.50
2019-01-04T01:30:46.376Z,12.50
2019-01-04T01:31:46.386Z,20.00
2019-01-04T01:32:46.349Z,15.80
2019-01-04T01:33:46.340Z,15.80
2019-01-04T01:34:46.347Z,17.90
2019-01-04T01:35:46.314Z,20.80
2019-01-04T01:36:46.307Z,21.10
2019-01-04T01:37:46.338Z,19.10
2019-01-04T01:38:46.284Z,20.00
2019-01-04T01:39:46.269Z,20.80
2019-01-04T01:40:46.278Z,17.70
2019-01-04T01:41:46.249Z,23.60
2019-01-04T01:42:46.240Z,21.90
2019-01-04T01:43:46.271Z,19.70
2019-01-04T01:44:46.215Z,25.10
2019-01-04T01:45:46.204Z,24.10
2019-01-04T01:46:46.207Z,22.00
2019-01-04T01:47:46.187Z,23.70
2019-01-04T01:48:46.177Z,35.30
2019-01-04T01:49:46.178Z,32.10
2019-01-04T01:50:46.155Z,30.10
2019-01-04T01:51:46.159Z,26.20
2019-01-04T01:52:46.128Z,32.00
2019-01-04T01:53:46.119Z,60.00
2019-01-04T01:54:46.106Z,72.10
2019-01-04T01:55:46.110Z,105.90
2019-01-04T01:56:46.125Z,119.00
2019-01-04T01:57:46.089Z,74.10
2019-01-04T01:58:46.065Z,70.40
2019-01-04T01:59:46.050Z,54.00
2019-01-04T02:00:46.039Z,84.00
2019-01-04T02:01:46.040Z,120.90
2019-01-04T02:02:46.017Z,179.90
2019-01-04T02:03:46.042Z,228.70
2019-01-04T02:04:45.993Z,282.70
2019-01-04T02:05:45.983Z,234.70
2019-01-04T02:06:45.972Z,289.40
2019-01-04T02:07:45.978Z,218.70
2019-01-04T02:08:45.950Z,100.30
2019-01-04T02:09:45.957Z,94.90
2019-01-04T02:10:45.927Z,129.60
2019-01-04T02:11:45.927Z,172.50
2019-01-04T02:12:45.905Z,155.80
2019-01-04T02:13:45.914Z,82.30
2019-01-04T02:14:45.885Z,88.80
2019-01-04T02:15:45.881Z,102.10
2019-01-04T02:16:45.859Z,106.10
2019-01-04T02:17:45.848Z,64.80
2019-01-04T02:18:45.839Z,65.60
2019-01-04T02:19:45.878Z,62.00
2019-01-04T02:20:45.832Z,55.70
2019-01-04T02:21:45.803Z,44.40
2019-01-04T02:22:45.795Z,51.20
2019-01-04T02:23:45.784Z,49.90
2019-01-04T02:24:45.769Z,48.50
2019-01-04T02:25:45.781Z,33.10
2019-01-04T02:26:45.769Z,37.40
2019-01-04T02:27:45.739Z,40.20
2019-01-04T02:28:45.726Z,41.60
2019-01-04T02:29:45.714Z,35.60
2019-01-04T02:30:45.707Z,22.50
2019-01-04T02:31:45.730Z,20.90
2019-01-04T02:32:45.701Z,19.60
2019-01-04T02:33:45.669Z,23.00
2019-01-04T02:34:45.661Z,14.30
2019-01-04T02:35:45.649Z,16.40
2019-01-04T02:36:45.641Z,16.50
2019-01-04T02:37:54.665Z,16.20
2019-01-04T02:38:45.630Z,18.20
2019-01-04T02:39:45.604Z,19.40
2019-01-04T02:40:45.599Z,17.50
2019-01-04T02:41:45.592Z,13.90
2019-01-04T02:42:45.610Z,16.90
2019-01-04T02:43:45.585Z,15.00
2019-01-04T02:44:45.552Z,14.40
2019-01-04T02:45:45.541Z,16.00
2019-01-04T02:46:45.531Z,14.50
2019-01-04T02:47:45.513Z,14.70
2019-01-04T02:48:45.503Z,17.90
2019-01-04T02:49:45.511Z,12.00
2019-01-04T02:50:45.484Z,15.00
2019-01-04T02:51:45.475Z,17.50
2019-01-04T02:52:45.464Z,16.50
2019-01-04T02:53:45.447Z,13.60
2019-01-04T02:54:45.438Z,13.80
2019-01-04T02:55:45.444Z,13.50
2019-01-04T02:56:45.414Z,16.10
2019-01-04T02:57:45.410Z,15.00
2019-01-04T02:58:45.401Z,11.70
2019-01-04T02:59:45.397Z,14.30
2019-01-04T03:00:45.369Z,11.30
2019-01-04T03:01:45.370Z,13.40
2019-01-04T03:02:45.351Z,11.80
2019-01-04T03:03:45.335Z,12.40
2019-01-04T03:04:45.337Z,11.90
2019-01-04T03:05:45.316Z,10.70
2019-01-04T03:06:45.323Z,15.80
2019-01-04T03:07:45.290Z,12.40
2019-01-04T03:08:45.289Z,14.70
2019-01-04T03:09:45.270Z,14.80
2019-01-04T03:10:45.263Z,10.60
2019-01-04T03:11:45.253Z,13.70
2019-01-04T03:12:45.250Z,13.30
2019-01-04T03:13:45.227Z,11.30
2019-01-04T03:14:45.215Z,11.20
2019-01-04T03:15:45.206Z,11.10
2019-01-04T03:16:45.225Z,14.70
2019-01-04T03:17:45.287Z,14.80
2019-01-04T03:18:45.188Z,13.80
2019-01-04T03:19:45.179Z,13.00
2019-01-04T03:20:45.149Z,13.00
2019-01-04T03:21:45.139Z,13.30
2019-01-04T03:22:45.127Z,11.10
2019-01-04T03:23:45.171Z,10.40
2019-01-04T03:24:45.150Z,10.50
2019-01-04T03:25:45.111Z,12.80
2019-01-04T03:26:45.081Z,12.50
2019-01-04T03:27:45.110Z,11.40
2019-01-04T03:28:45.063Z,11.70
2019-01-04T03:29:45.069Z,11.60
2019-01-04T03:30:45.041Z,13.60
2019-01-04T03:31:45.039Z,10.60
2019-01-04T03:32:45.066Z,16.10
2019-01-04T03:33:45.002Z,11.20
2019-01-04T03:34:44.995Z,16.70
2019-01-04T03:35:44.999Z,9.70
2019-01-04T03:36:44.998Z,9.60
2019-01-04T03:37:45.010Z,12.30
2019-01-04T03:38:44.959Z,11.00
2019-01-04T03:39:44.935Z,11.20
2019-01-04T03:40:44.952Z,12.50
2019-01-04T03:41:44.916Z,11.10
2019-01-04T03:42:44.934Z,12.00
2019-01-04T03:43:44.932Z,8.70
2019-01-04T03:44:44.884Z,11.80
2019-01-04T03:45:44.873Z,9.40
2019-01-04T03:46:44.863Z,10.60
2019-01-04T03:47:44.863Z,12.60
2019-01-04T03:48:44.845Z,10.10
2019-01-04T03:49:44.837Z,9.40
2019-01-04T03:50:44.814Z,9.50
2019-01-04T03:51:44.802Z,9.60
2019-01-04T03:52:44.803Z,13.40
2019-01-04T03:53:44.787Z,9.20
2019-01-04T03:54:44.793Z,8.20
2019-01-04T03:55:44.759Z,8.20
2019-01-04T03:56:44.749Z,9.70
2019-01-04T03:57:44.738Z,10.90
2019-01-04T03:58:44.726Z,10.60
2019-01-04T03:59:44.717Z,10.40
2019-01-04T04:00:44.713Z,8.60
2019-01-04T04:01:44.706Z,7.80
2019-01-04T04:02:44.677Z,8.00
2019-01-04T04:03:44.674Z,9.50
2019-01-04T04:04:44.655Z,10.00
2019-01-04T04:05:44.671Z,8.60
2019-01-04T04:06:44.638Z,7.80
2019-01-04T04:07:44.628Z,7.00
2019-01-04T04:08:44.614Z,7.50
2019-01-04T04:09:44.604Z,8.20
2019-01-04T04:10:44.588Z,9.00
2019-01-04T04:11:44.592Z,9.90
2019-01-04T04:12:44.592Z,9.40
2019-01-04T04:13:44.558Z,6.50
2019-01-04T04:14:44.553Z,7.80
2019-01-04T04:15:44.555Z,8.00
2019-01-04T04:16:44.528Z,9.20
2019-01-04T04:17:44.524Z,9.80
2019-01-04T04:18:44.512Z,8.80
2019-01-04T04:19:44.492Z,9.60
2019-01-04T04:20:44.483Z,8.40
2019-01-04T04:21:44.480Z,7.80
2019-01-04T04:22:44.484Z,10.80
2019-01-04T04:23:44.460Z,7.70
2019-01-04T04:24:44.438Z,10.70
2019-01-04T04:25:44.428Z,7.00
2019-01-04T04:26:44.435Z,7.30
2019-01-04T04:27:44.398Z,8.60
2019-01-04T04:28:44.393Z,9.30
2019-01-04T04:29:44.421Z,8.80
2019-01-04T04:30:44.370Z,8.00
2019-01-04T04:31:44.357Z,7.50
2019-01-04T04:32:44.384Z,6.80
2019-01-04T04:33:44.365Z,8.30
2019-01-04T04:34:44.321Z,7.20
2019-01-04T04:35:44.315Z,7.20
2019-01-04T04:36:44.315Z,6.90
2019-01-04T04:37:44.287Z,9.50
2019-01-04T04:38:44.311Z,7.10
2019-01-04T04:39:44.267Z,8.80
2019-01-04T04:40:44.253Z,7.50
2019-01-04T04:41:44.260Z,7.50
2019-01-04T04:42:44.238Z,9.20
2019-01-04T04:43:44.233Z,6.10
2019-01-04T04:44:44.238Z,8.70
2019-01-04T04:45:44.206Z,8.30
2019-01-04T04:46:44.184Z,7.40
2019-01-04T04:47:44.177Z,7.10
2019-01-04T04:48:44.178Z,6.50
2019-01-04T04:49:44.153Z,6.70
2019-01-04T04:50:44.170Z,7.20
2019-01-04T04:51:44.131Z,8.10
2019-01-04T04:52:44.120Z,7.50
2019-01-04T04:53:44.109Z,8.70
2019-01-04T04:54:44.113Z,7.60
2019-01-04T04:55:44.087Z,6.10
2019-01-04T04:56:44.101Z,7.80
2019-01-04T04:57:44.075Z,10.30
2019-01-04T04:58:44.068Z,6.00
2019-01-04T04:59:44.055Z,6.60
2019-01-04T05:00:44.033Z,6.60
2019-01-04T05:01:44.022Z,6.40
2019-01-04T05:02:44.026Z,7.60
2019-01-04T05:03:44.011Z,7.10
2019-01-04T05:04:43.988Z,4.50
2019-01-04T05:05:43.975Z,5.60
2019-01-04T05:06:43.965Z,6.60
2019-01-04T05:07:43.968Z,8.70
2019-01-04T05:08:43.958Z,5.80
2019-01-04T05:09:43.937Z,6.50
2019-01-04T05:10:43.921Z,8.70
2019-01-04T05:11:43.908Z,6.90
2019-01-04T05:12:43.897Z,5.40
2019-01-04T05:13:43.885Z,8.10
2019-01-04T05:14:43.894Z,7.60
2019-01-04T05:15:43.874Z,7.90
2019-01-04T05:16:43.858Z,8.30
2019-01-04T05:17:43.868Z,7.00
2019-01-04T05:18:43.830Z,5.40
2019-01-04T05:19:43.820Z,5.90
2019-01-04T05:20:43.823Z,7.60
2019-01-04T05:21:43.806Z,8.50
2019-01-04T05:22:43.793Z,7.20
2019-01-04T05:23:43.782Z,8.90
2019-01-04T05:24:43.778Z,5.90
2019-01-04T05:25:43.754Z,6.40
2019-01-04T05:26:43.755Z,5.40
2019-01-04T05:27:43.733Z,8.70
2019-01-04T05:28:43.723Z,6.00
2019-01-04T05:29:43.710Z,5.90
2019-01-04T05:30:43.707Z,8.50
2019-01-04T05:31:43.701Z,8.10
2019-01-04T05:32:43.679Z,8.20
2019-01-04T05:33:43.678Z,9.00
2019-01-04T05:34:43.667Z,9.90
2019-01-04T05:35:43.642Z,7.90
2019-01-04T05:36:43.638Z,6.80
2019-01-04T05:37:43.632Z,5.80
2019-01-04T05:38:43.616Z,7.60
2019-01-04T05:39:43.618Z,10.10
2019-01-04T05:40:43.605Z,6.30
2019-01-04T05:41:43.578Z,6.20
2019-01-04T05:42:43.570Z,7.40
2019-01-04T05:43:43.566Z,7.50
2019-01-04T05:44:43.544Z,8.50
2019-01-04T05:45:43.606Z,6.70
2019-01-04T05:46:43.528Z,7.20
2019-01-04T05:47:43.517Z,10.50
2019-01-04T05:48:43.499Z,7.40
2019-01-04T05:49:43.490Z,7.40
2019-01-04T05:50:43.478Z,8.50
2019-01-04T05:51:43.498Z,9.20
2019-01-04T05:52:43.455Z,9.30
2019-01-04T05:53:43.462Z,7.20
2019-01-04T05:54:43.432Z,9.20
2019-01-04T05:55:43.447Z,8.90
2019-01-04T05:56:43.443Z,10.00
2019-01-04T05:57:43.406Z,10.10
2019-01-04T05:58:43.393Z,9.10
2019-01-04T05:59:43.382Z,9.70
2019-01-04T06:00:43.410Z,12.00
2019-01-04T06:01:43.391Z,7.30
2019-01-04T06:02:43.345Z,9.70
2019-01-04T06:03:43.333Z,9.70
2019-01-04T06:04:43.322Z,7.70
2019-01-04T06:05:43.315Z,8.30
2019-01-04T06:06:43.304Z,13.50
2019-01-04T06:07:43.312Z,11.60
2019-01-04T06:08:43.277Z,8.20
2019-01-04T06:09:43.266Z,8.60
2019-01-04T06:10:43.258Z,10.30
2019-01-04T06:11:43.244Z,10.60
2019-01-04T06:12:43.234Z,9.40
2019-01-04T06:13:43.243Z,7.20
2019-01-04T06:14:43.223Z,10.50
2019-01-04T06:15:43.200Z,9.60
2019-01-04T06:16:43.189Z,8.90
2019-01-04T06:17:43.177Z,8.70
2019-01-04T06:18:43.166Z,9.30
2019-01-04T06:19:43.167Z,10.40
2019-01-04T06:20:43.148Z,10.40
2019-01-04T06:21:43.138Z,7.70
2019-01-04T06:22:43.137Z,8.10
2019-01-04T06:23:43.110Z,12.50
2019-01-04T06:24:43.116Z,8.50
2019-01-04T06:25:43.090Z,8.50
2019-01-04T06:26:43.079Z,6.60
2019-01-04T06:27:44.157Z,9.50
2019-01-04T06:28:43.061Z,7.60
2019-01-04T06:29:43.047Z,7.70
2019-01-04T06:30:43.052Z,8.40
2019-01-04T06:31:43.040Z,7.70
2019-01-04T06:32:43.015Z,7.80
2019-01-04T06:33:43.000Z,9.40
2019-01-04T06:34:42.990Z,7.30
2019-01-04T06:35:42.997Z,7.70
2019-01-04T06:36:42.974Z,7.30
2019-01-04T06:37:42.962Z,8.00
2019-01-04T06:38:42.947Z,10.00
2019-01-04T06:39:42.935Z,7.20
2019-01-04T06:40:42.922Z,7.20
2019-01-04T06:41:42.933Z,6.50
2019-01-04T06:42:42.904Z,8.90
2019-01-04T06:43:42.895Z,9.40
2019-01-04T06:44:42.879Z,7.60
2019-01-04T06:45:42.875Z,8.60
2019-01-04T06:46:42.855Z,8.00
2019-01-04T06:47:42.863Z,9.20
2019-01-04T06:48:42.835Z,7.90
2019-01-04T06:49:42.837Z,6.60
2019-01-04T06:50:42.814Z,6.70
2019-01-04T06:51:42.801Z,6.50
2019-01-04T06:52:42.793Z,6.70
2019-01-04T06:53:42.796Z,7.70
2019-01-04T06:54:42.768Z,7.00
2019-01-04T06:55:42.764Z,7.70
2019-01-04T06:56:42.757Z,8.30
2019-01-04T06:57:42.736Z,6.50
2019-01-04T06:58:42.746Z,8.20
2019-01-04T06:59:42.734Z,7.10
2019-01-04T07:00:42.702Z,7.90
2019-01-04T07:01:42.692Z,6.00
2019-01-04T07:02:42.685Z,8.90
2019-01-04T07:03:42.667Z,6.60
2019-01-04T07:04:42.672Z,8.40
2019-01-04T07:05:42.651Z,8.20
2019-01-04T07:06:42.647Z,6.70
2019-01-04T07:07:42.627Z,7.50
2019-01-04T07:08:42.630Z,7.80
2019-01-04T07:09:42.609Z,7.50
2019-01-04T07:10:42.605Z,9.20
2019-01-04T07:11:42.595Z,8.50
2019-01-04T07:12:42.567Z,9.00
2019-01-04T07:13:42.557Z,10.80
2019-01-04T07:14:42.560Z,7.10
2019-01-04T07:15:42.545Z,7.30
2019-01-04T07:16:42.552Z,7.10
2019-01-04T07:17:42.536Z,9.10
2019-01-04T07:18:42.503Z,7.60
2019-01-04T07:19:42.493Z,10.00
2019-01-04T07:20:42.482Z,9.50
2019-01-04T07:21:42.470Z,8.90
2019-01-04T07:22:42.492Z,10.90
2019-01-04T07:23:42.463Z,7.50
2019-01-04T07:24:42.444Z,8.20
2019-01-04T07:25:42.431Z,10.70
2019-01-04T07:26:42.431Z,10.40
2019-01-04T07:27:42.421Z,10.70
2019-01-04T07:28:42.393Z,8.20
2019-01-04T07:29:42.381Z,8.80
2019-01-04T07:30:42.368Z,10.00
2019-01-04T07:31:42.359Z,7.60
2019-01-04T07:32:42.355Z,7.80
2019-01-04T07:33:42.356Z,12.20
2019-01-04T07:34:42.324Z,7.20
2019-01-04T07:35:42.316Z,8.20
2019-01-04T07:36:42.304Z,9.60
2019-01-04T07:37:42.294Z,7.40
2019-01-04T07:38:42.305Z,9.20
2019-01-04T07:39:42.270Z,12.00
2019-01-04T07:40:42.262Z,7.00
2019-01-04T07:41:42.247Z,9.50
2019-01-04T07:42:42.262Z,8.50
2019-01-04T07:43:42.230Z,7.40
2019-01-04T07:44:42.239Z,7.20
2019-01-04T07:45:42.251Z,9.90
2019-01-04T07:46:42.193Z,8.70
2019-01-04T07:47:42.184Z,10.10
2019-01-04T07:48:42.172Z,8.80
2019-01-04T07:49:42.158Z,8.10
2019-01-04T07:50:42.160Z,9.20
2019-01-04T07:51:42.172Z,7.40
2019-01-04T07:52:42.127Z,8.20
2019-01-04T07:53:42.132Z,7.50
2019-01-04T07:54:42.104Z,7.00
2019-01-04T07:55:42.141Z,8.60
2019-01-04T07:56:42.083Z,8.20
2019-01-04T07:57:42.095Z,15.40
2019-01-04T07:58:42.060Z,10.30
2019-01-04T07:59:42.049Z,9.30
2019-01-04T08:00:42.036Z,10.30
2019-01-04T08:01:42.038Z,8.90
2019-01-04T08:02:42.014Z,9.00
2019-01-04T08:03:42.021Z,8.50
2019-01-04T08:04:41.994Z,8.50
2019-01-04T08:05:41.983Z,7.20
2019-01-04T08:06:41.984Z,8.60
2019-01-04T08:07:41.958Z,9.60
2019-01-04T08:08:41.959Z,9.00
2019-01-04T08:09:41.952Z,7.40
2019-01-04T08:10:41.940Z,9.50
2019-01-04T08:11:41.923Z,7.90
2019-01-04T08:12:41.911Z,9.70
2019-01-04T08:13:41.893Z,10.00
2019-01-04T08:14:41.883Z,11.20
2019-01-04T08:15:41.891Z,8.90
2019-01-04T08:16:41.861Z,12.00
2019-01-04T08:17:41.861Z,10.60
2019-01-04T08:18:41.850Z,8.20
2019-01-04T08:19:41.828Z,10.50
2019-01-04T08:20:41.819Z,7.50
2019-01-04T08:21:41.831Z,8.40
2019-01-04T08:22:41.813Z,9.10
2019-01-04T08:23:41.806Z,9.00
2019-01-04T08:24:41.771Z,7.10
2019-01-04T08:25:41.762Z,8.30
2019-01-04T08:26:41.769Z,12.00
2019-01-04T08:27:41.746Z,8.20
2019-01-04T08:28:41.738Z,7.70
2019-01-04T08:29:41.735Z,8.30
2019-01-04T08:30:41.726Z,9.70
2019-01-04T08:31:41.695Z,7.40
2019-01-04T08:32:41.682Z,8.90
2019-01-04T08:33:41.690Z,9.80
2019-01-04T08:34:41.664Z,9.10
2019-01-04T08:35:41.650Z,9.10
2019-01-04T08:36:41.655Z,9.80
2019-01-04T08:37:41.628Z,8.00
2019-01-04T08:38:49.178Z,7.20
2019-01-04T08:39:41.617Z,8.00
2019-01-04T08:40:41.600Z,9.40
2019-01-04T08:41:41.620Z,7.30
2019-01-04T08:42:41.595Z,7.40
2019-01-04T08:43:41.566Z,8.90
2019-01-04T08:44:41.560Z,9.00
2019-01-04T08:45:41.546Z,7.70
2019-01-04T08:46:41.529Z,9.00
2019-01-04T08:47:41.555Z,8.70
2019-01-04T08:48:41.548Z,9.10
2019-01-04T08:49:41.496Z,9.60
2019-01-04T08:50:41.488Z,8.50
2019-01-04T08:51:41.474Z,7.40
2019-01-04T08:52:41.495Z,8.80
2019-01-04T08:53:41.452Z,8.40
2019-01-04T08:54:41.461Z,8.20
2019-01-04T08:55:41.442Z,11.80
2019-01-04T08:56:41.416Z,9.80
2019-01-04T08:57:41.409Z,10.90
2019-01-04T08:58:41.417Z,6.30
2019-01-04T08:59:41.407Z,7.40
2019-01-04T09:00:41.376Z,8.10
2019-01-04T09:01:41.364Z,7.70
2019-01-04T09:02:41.353Z,7.00
2019-01-04T09:03:41.344Z,4.90
2019-01-04T09:04:41.344Z,8.40
2019-01-04T09:05:41.334Z,7.60
2019-01-04T09:06:41.312Z,8.50
2019-01-04T09:07:41.297Z,11.90
2019-01-04T09:08:41.287Z,8.70
2019-01-04T09:09:41.277Z,7.00
2019-01-04T09:10:41.319Z,8.30
2019-01-04T09:11:41.257Z,5.90
2019-01-04T09:12:41.255Z,8.50
2019-01-04T09:13:41.233Z,5.80
2019-01-04T09:14:41.238Z,8.40
2019-01-04T09:15:41.211Z,7.70
2019-01-04T09:16:41.209Z,7.10
2019-01-04T09:17:41.201Z,8.10
2019-01-04T09:18:41.177Z,7.50
2019-01-04T09:19:41.181Z,8.40
2019-01-04T09:20:41.170Z,10.50
2019-01-04T09:21:41.141Z,8.40
2019-01-04T09:22:41.139Z,6.20
2019-01-04T09:23:41.121Z,6.60
2019-01-04T09:24:41.133Z,5.50
2019-01-04T09:25:41.102Z,8.10
2019-01-04T09:26:41.100Z,9.80
2019-01-04T09:27:41.093Z,10.10
2019-01-04T09:28:41.067Z,7.00
2019-01-04T09:29:41.052Z,9.10
2019-01-04T09:30:41.058Z,8.40
2019-01-04T09:31:41.031Z,8.10
2019-01-04T09:32:41.036Z,9.50
2019-01-04T09:33:41.008Z,9.60
2019-01-04T09:34:40.996Z,8.00
2019-01-04T09:35:40.987Z,10.50
2019-01-04T09:36:41.005Z,7.90
2019-01-04T09:37:40.964Z,6.80
2019-01-04T09:38:40.966Z,11.30
2019-01-04T09:39:40.944Z,8.10
2019-01-04T09:40:40.949Z,7.40
2019-01-04T09:41:40.926Z,6.90
2019-01-04T09:42:40.955Z,5.80
2019-01-04T09:43:40.898Z,5.90
2019-01-04T09:44:40.903Z,6.90
2019-01-04T09:45:40.878Z,7.30
2019-01-04T09:46:40.867Z,8.00
2019-01-04T09:47:40.856Z,7.10
2019-01-04T09:48:40.860Z,6.50
2019-01-04T09:49:40.844Z,9.60
2019-01-04T09:50:40.818Z,7.60
2019-01-04T09:51:41.881Z,8.60
2019-01-04T09:52:40.802Z,11.60
2019-01-04T09:53:40.788Z,9.50
2019-01-04T09:54:40.803Z,13.40
2019-01-04T09:55:40.764Z,11.60
2019-01-04T09:56:40.772Z,19.20
2019-01-04T09:57:40.743Z,21.70
2019-01-04T09:58:40.734Z,27.00
2019-01-04T09:59:40.720Z,17.50
2019-01-04T10:00:40.710Z,11.50
2019-01-04T10:01:40.726Z,10.50
2019-01-04T10:02:40.700Z,8.70
2019-01-04T10:03:40.679Z,7.70
2019-01-04T10:04:40.668Z,8.10
2019-01-04T10:05:40.653Z,8.70
2019-01-04T10:06:40.644Z,6.10
2019-01-04T10:07:40.669Z,6.90
2019-01-04T10:08:44.927Z,9.90
2019-01-04T10:09:40.612Z,8.50
2019-01-04T10:10:40.600Z,10.20
2019-01-04T10:11:40.590Z,7.90
2019-01-04T10:12:40.579Z,9.20
2019-01-04T10:13:40.620Z,9.50
2019-01-04T10:14:40.564Z,7.90
2019-01-04T10:15:40.544Z,7.50
2019-01-04T10:16:40.533Z,10.80
2019-01-04T10:17:40.568Z,11.10
2019-01-04T10:18:40.532Z,11.10
2019-01-04T10:19:40.499Z,10.00
2019-01-04T10:20:40.507Z,10.30
2019-01-04T10:21:40.480Z,10.60
2019-01-04T10:22:40.465Z,10.70
2019-01-04T10:23:40.455Z,10.40
2019-01-04T10:24:40.466Z,8.40
2019-01-04T10:25:40.433Z,12.40
2019-01-04T10:26:40.427Z,11.00
2019-01-04T10:27:40.434Z,8.50
2019-01-04T10:28:40.438Z,8.90
2019-01-04T10:29:40.413Z,11.30
2019-01-04T10:30:40.379Z,10.50
2019-01-04T10:31:40.370Z,10.00
2019-01-04T10:32:40.357Z,13.60
2019-01-04T10:33:40.390Z,14.40
2019-01-04T10:34:40.340Z,9.40
2019-01-04T10:35:40.333Z,11.90
2019-01-04T10:36:40.315Z,11.90
2019-01-04T10:37:40.300Z,9.20
2019-01-04T10:38:40.287Z,11.00
2019-01-04T10:39:40.293Z,12.90
2019-01-04T10:40:40.277Z,10.80
2019-01-04T10:41:40.280Z,10.90
2019-01-04T10:42:40.246Z,14.80
2019-01-04T10:43:40.235Z,11.90
2019-01-04T10:44:40.224Z,11.30
2019-01-04T10:45:40.212Z,11.10
2019-01-04T10:46:40.714Z,9.60
2019-01-04T10:47:40.191Z,10.90
2019-01-04T10:48:40.200Z,12.80
2019-01-04T10:49:40.168Z,11.40
2019-01-04T10:50:40.157Z,9.40
2019-01-04T10:51:40.145Z,9.70
2019-01-04T10:52:40.159Z,12.70
2019-01-04T10:53:40.152Z,10.30
2019-01-04T10:54:40.119Z,10.00
2019-01-04T10:55:40.111Z,11.90
2019-01-04T10:56:40.093Z,10.10
2019-01-04T10:57:40.080Z,13.70
2019-01-04T10:58:40.085Z,12.90
2019-01-04T10:59:40.099Z,13.40
2019-01-04T11:00:40.049Z,13.30
2019-01-04T11:01:40.032Z,11.40
2019-01-04T11:02:40.030Z,11.50
2019-01-04T11:03:40.012Z,9.70
2019-01-04T11:04:40.012Z,10.60
2019-01-04T11:05:40.011Z,12.30
2019-01-04T11:06:39.983Z,12.10
2019-01-04T11:07:39.969Z,12.20
2019-01-04T11:08:39.956Z,12.50
2019-01-04T11:09:39.966Z,14.10
2019-01-04T11:10:39.935Z,11.00
2019-01-04T11:11:39.945Z,10.20
2019-01-04T11:12:39.915Z,13.50
2019-01-04T11:13:39.904Z,12.30
2019-01-04T11:14:39.893Z,9.40
2019-01-04T11:15:39.904Z,10.20
2019-01-04T11:16:39.868Z,13.90
2019-01-04T11:17:39.882Z,14.70
2019-01-04T11:18:39.843Z,14.20
2019-01-04T11:19:39.834Z,13.30
2019-01-04T11:20:39.823Z,13.70
2019-01-04T11:21:39.826Z,14.40
2019-01-04T11:22:39.806Z,12.90
2019-01-04T11:23:39.818Z,10.40
2019-01-04T11:24:39.779Z,11.50
2019-01-04T11:25:39.771Z,14.50
2019-01-04T11:26:39.772Z,14.80
2019-01-04T11:27:39.748Z,14.50
2019-01-04T11:28:39.736Z,13.10
2019-01-04T11:29:39.757Z,15.90
2019-01-04T11:30:39.716Z,12.50
2019-01-04T11:31:39.712Z,13.50
2019-01-04T11:32:39.706Z,11.70
2019-01-04T11:33:39.679Z,14.00
2019-01-04T11:34:39.673Z,14.10
2019-01-04T11:35:39.671Z,13.30
2019-01-04T11:36:39.652Z,11.90
2019-01-04T11:37:39.661Z,11.80
2019-01-04T11:38:39.630Z,11.10
2019-01-04T11:39:39.614Z,12.80
2019-01-04T11:40:39.604Z,13.20
2019-01-04T11:41:39.598Z,11.30
2019-01-04T11:42:39.599Z,12.40
2019-01-04T11:43:39.583Z,11.10
2019-01-04T11:44:39.559Z,14.60
2019-01-04T11:45:39.557Z,13.50
2019-01-04T11:46:39.539Z,14.90
2019-01-04T11:47:39.525Z,13.60
2019-01-04T11:48:39.531Z,12.50
2019-01-04T11:49:39.543Z,12.30
2019-01-04T11:50:39.494Z,14.00
2019-01-04T11:51:39.537Z,15.10
2019-01-04T11:52:39.472Z,17.70
2019-01-04T11:53:39.460Z,12.80
2019-01-04T11:54:39.463Z,9.90
2019-01-04T11:55:39.437Z,11.50
2019-01-04T11:56:39.434Z,11.40
2019-01-04T11:57:40.744Z,15.80
2019-01-04T11:58:39.436Z,14.90
2019-01-04T11:59:39.641Z,14.10
2019-01-04T12:00:39.388Z,11.90
2019-01-04T12:01:39.387Z,14.80
2019-01-04T12:02:39.367Z,14.00
2019-01-04T12:03:39.349Z,12.90
2019-01-04T12:04:39.347Z,16.90
2019-01-04T12:05:39.344Z,16.00
2019-01-04T12:06:39.361Z,13.60
2019-01-04T12:07:39.306Z,16.30
2019-01-04T12:08:39.295Z,17.10
2019-01-04T12:09:39.292Z,17.70
2019-01-04T12:10:39.274Z,12.90
2019-01-04T12:11:39.281Z,18.20
2019-01-04T12:12:39.255Z,14.40
2019-01-04T12:13:39.245Z,14.10
2019-01-04T12:14:41.506Z,15.50
2019-01-04T12:15:39.217Z,15.10
2019-01-04T12:16:39.206Z,11.50
2019-01-04T12:17:39.259Z,13.80
2019-01-04T12:18:39.187Z,16.80
2019-01-04T12:19:39.175Z,21.80
2019-01-04T12:20:45.279Z,29.10
2019-01-04T12:21:40.150Z,17.70
2019-01-04T12:22:39.155Z,12.60
2019-01-04T12:23:39.160Z,13.20
2019-01-04T12:24:39.118Z,13.10
2019-01-04T12:25:39.105Z,14.80
2019-01-04T12:26:39.094Z,11.00
2019-01-04T12:27:39.084Z,12.40
2019-01-04T12:28:39.083Z,12.00
2019-01-04T12:29:39.079Z,12.20
2019-01-04T12:30:39.052Z,11.50
2019-01-04T12:31:39.045Z,15.20
2019-01-04T12:32:39.026Z,11.60
2019-01-04T12:33:39.047Z,11.70
2019-01-04T12:34:39.009Z,10.30
2019-01-04T12:35:39.052Z,14.40
2019-01-04T12:36:38.985Z,13.70
2019-01-04T12:37:38.975Z,12.10
2019-01-04T12:38:38.971Z,15.30
2019-01-04T12:39:38.949Z,11.70
2019-01-04T12:40:38.942Z,9.70
2019-01-04T12:41:38.946Z,15.10
2019-01-04T12:42:38.940Z,17.80
2019-01-04T12:43:38.912Z,14.40
2019-01-04T12:44:38.896Z,19.70
2019-01-04T12:45:38.902Z,20.00
2019-01-04T12:46:38.885Z,19.90
2019-01-04T12:47:38.882Z,21.20
2019-01-04T12:48:38.877Z,14.90
2019-01-04T12:49:38.848Z,15.50
2019-01-04T12:50:38.831Z,13.10
2019-01-04T12:51:38.818Z,13.10
2019-01-04T12:52:38.840Z,15.10
2019-01-04T12:53:38.807Z,12.90
2019-01-04T12:54:38.786Z,14.50
2019-01-04T12:55:38.775Z,14.00
2019-01-04T12:56:38.775Z,14.10
2019-01-04T12:57:38.764Z,14.80
2019-01-04T12:58:38.744Z,13.80
2019-01-04T12:59:38.741Z,15.90
2019-01-04T13:00:38.717Z,13.20
2019-01-04T13:01:38.706Z,15.40
2019-01-04T13:02:38.715Z,15.40
2019-01-04T13:03:38.708Z,15.50